Time;durP1;ratioP1;P1;durP2;ratioP2;P2;SDS_P1;SDS_P2;PMS_P1;PMS_P2;Temp;Humidity;BMP_temperature;BMP_pressure;BME280_temperature;BME280_humidity;BME280_pressure;Samples;Min_cycle;Max_cycle;Signal;HPM_P1;HPM_P2
2023/01/13 00:01:11;;;;;;;0.13;0.13;;;;;;;8.99;100.00;99162.53;5074504;28;20187;-72
2023/01/13 00:03:37;;;;;;;0.00;0.00;;;;;;;8.98;100.00;99152.78;5072931;28;20182;-72
2023/01/13 00:06:03;;;;;;;0.00;0.00;;;;;;;8.99;100.00;99170.72;5072813;28;20194;-72
2023/01/13 00:08:29;;;;;;;0.00;0.00;;;;;;;8.97;100.00;99145.72;5074554;28;20210;-73
2023/01/13 00:10:55;;;;;;;0.10;0.10;;;;;;;8.99;100.00;99138.03;5074345;28;20178;-72
2023/01/13 00:13:25;;;;;;;0.00;0.00;;;;;;;8.96;100.00;99120.41;5072747;28;20185;-72
2023/01/13 00:15:58;;;;;;;0.03;0.03;;;;;;;8.98;100.00;99129.06;5073103;28;20171;-72
2023/01/13 00:18:23;;;;;;;0.33;0.10;;;;;;;8.99;100.00;99117.03;5074163;28;20170;-72
2023/01/13 00:20:58;;;;;;;0.07;0.07;;;;;;;9.04;100.00;99135.09;5074075;28;20297;-72
2023/01/13 00:23:23;;;;;;;0.10;0.10;;;;;;;9.06;100.00;99128.16;5073787;28;20530;-72
2023/01/13 00:25:49;;;;;;;0.00;0.00;;;;;;;9.11;100.00;99138.06;5072634;28;20186;-72
2023/01/13 00:28:14;;;;;;;0.00;0.00;;;;;;;9.16;100.00;99152.28;5072612;28;20205;-72
2023/01/13 00:30:39;;;;;;;0.27;0.00;;;;;;;9.20;100.00;99136.88;5073763;28;20614;-72
2023/01/13 00:33:04;;;;;;;0.13;0.13;;;;;;;9.19;100.00;99137.19;5073524;28;20600;-72
2023/01/13 00:35:30;;;;;;;0.00;0.00;;;;;;;9.23;100.00;99130.75;5073708;28;20185;-72
2023/01/13 00:37:55;;;;;;;0.20;0.20;;;;;;;9.21;100.00;99130.28;5074003;28;20182;-72
2023/01/13 00:40:20;;;;;;;0.10;0.10;;;;;;;9.21;100.00;99133.00;5072341;28;20202;-72
2023/01/13 00:45:29;;;;;;;6.03;0.10;;;;;;;9.25;100.00;99133.91;5073571;28;20169;-73
2023/01/13 00:47:55;;;;;;;0.20;0.20;;;;;;;9.27;100.00;99125.44;5072047;28;20198;-72
2023/01/13 00:50:20;;;;;;;0.20;0.20;;;;;;;9.25;100.00;99131.19;5071970;28;20178;-72
2023/01/13 00:52:45;;;;;;;2.80;0.73;;;;;;;9.30;100.00;99116.59;5073209;28;20255;-72
2023/01/13 00:55:11;;;;;;;0.33;0.33;;;;;;;9.35;100.00;99123.75;5073421;28;20174;-73
2023/01/13 00:57:36;;;;;;;0.20;0.20;;;;;;;9.33;100.00;99134.19;5073295;28;20194;-72
2023/01/13 01:00:02;;;;;;;0.00;0.00;;;;;;;9.23;100.00;99114.38;5073274;28;20174;-73
2023/01/13 01:02:27;;;;;;;0.30;0.30;;;;;;;9.19;100.00;99118.13;5073163;28;20254;-72
2023/01/13 01:04:53;;;;;;;0.00;0.00;;;;;;;9.15;100.00;99117.22;5073066;28;20289;-72
2023/01/13 01:07:18;;;;;;;0.00;0.00;;;;;;;9.16;100.00;99116.88;5072147;28;20197;-72
2023/01/13 01:09:43;;;;;;;0.00;0.00;;;;;;;9.13;100.00;99105.84;5071849;28;20228;-73
2023/01/13 01:12:08;;;;;;;0.10;0.10;;;;;;;9.12;100.00;99096.88;5073020;28;20676;-72
2023/01/13 01:14:34;;;;;;;0.00;0.00;;;;;;;9.10;100.00;99093.66;5072818;28;20198;-73
2023/01/13 01:16:59;;;;;;;0.00;0.00;;;;;;;9.13;100.00;99100.41;5072942;28;20262;-72
2023/01/13 01:19:24;;;;;;;0.10;0.10;;;;;;;9.09;100.00;99097.53;5072918;28;20269;-72
2023/01/13 01:21:49;;;;;;;0.10;0.10;;;;;;;9.11;100.00;99094.47;5072863;28;20167;-73
2023/01/13 01:24:15;;;;;;;0.20;0.10;;;;;;;9.13;100.00;99105.84;5072467;28;20206;-72
2023/01/13 01:26:41;;;;;;;0.00;0.00;;;;;;;9.10;100.00;99110.03;5072653;28;20538;-72
2023/01/13 01:29:06;;;;;;;0.30;0.30;;;;;;;9.11;100.00;99117.09;5072985;28;20175;-72
2023/01/13 01:31:32;;;;;;;0.00;0.00;;;;;;;9.09;100.00;99119.31;5072688;28;20202;-72
2023/01/13 01:33:58;;;;;;;0.00;0.00;;;;;;;9.07;100.00;99116.16;5072348;28;20269;-73
2023/01/13 01:36:25;;;;;;;0.00;0.00;;;;;;;9.10;100.00;99126.38;5072481;28;20174;-73
2023/01/13 01:38:51;;;;;;;0.00;0.00;;;;;;;9.12;100.00;99107.78;5072576;28;20638;-73
2023/01/13 01:41:19;;;;;;;0.00;0.00;;;;;;;9.09;100.00;99104.91;5072501;28;20171;-73
2023/01/13 01:44:05;;;;;;;0.00;0.00;;;;;;;9.20;100.00;99120.50;5070975;28;20560;-72
2023/01/13 01:46:39;;;;;;;0.00;0.00;;;;;;;9.25;100.00;99114.06;5072431;28;20162;-73
2023/01/13 01:49:19;;;;;;;5.50;0.20;;;;;;;9.28;100.00;99118.84;5071934;28;20182;-72
2023/01/13 01:51:57;;;;;;;0.00;0.00;;;;;;;9.40;100.00;99127.09;5072328;28;20787;-73
2023/01/13 01:54:49;;;;;;;0.20;0.20;;;;;;;9.54;100.00;99145.84;5070684;28;20170;-72
2023/01/13 01:57:21;;;;;;;0.03;0.03;;;;;;;9.53;100.00;99141.53;5072471;28;20224;-75
2023/01/13 01:59:48;;;;;;;0.00;0.00;;;;;;;9.54;100.00;99140.38;5073098;28;20159;-74
2023/01/13 02:02:13;;;;;;;0.00;0.00;;;;;;;9.60;100.00;99133.59;5075262;28;20171;-75
2023/01/13 02:04:42;;;;;;;0.10;0.03;;;;;;;9.54;100.00;99127.53;5070345;28;20669;-75
2023/01/13 02:07:07;;;;;;;1.13;0.47;;;;;;;9.44;100.00;99127.19;5071973;28;20583;-75
2023/01/13 02:09:34;;;;;;;2.17;0.30;;;;;;;9.38;99.51;99134.78;5071844;28;20257;-75
2023/01/13 02:14:44;;;;;;;0.30;0.10;;;;;;;9.32;98.64;99138.84;5071739;28;20277;-72
2023/01/13 02:17:12;;;;;;;0.47;0.30;;;;;;;9.34;97.73;99141.22;5071551;28;20170;-72
2023/01/13 02:20:02;;;;;;;0.33;0.30;;;;;;;9.33;96.87;99135.00;5071642;28;20201;-72
2023/01/13 02:22:46;;;;;;;0.67;0.20;;;;;;;9.36;96.06;99128.06;5071643;28;20159;-72
2023/01/13 02:25:24;;;;;;;0.10;0.10;;;;;;;9.30;96.33;99122.03;5070364;28;20178;-72
2023/01/13 02:28:05;;;;;;;1.03;0.60;;;;;;;9.33;95.71;99126.81;5071517;28;20248;-72
2023/01/13 02:34:21;;;;;;;0.00;0.00;;;;;;;9.37;94.92;99125.00;5038326;28;20254;-72
2023/01/13 02:37:02;;;;;;;0.10;0.10;;;;;;;9.34;96.34;99130.34;5035844;28;20182;-73
2023/01/13 02:39:47;;;;;;;0.10;0.10;;;;;;;9.27;98.58;99125.44;5071416;28;20299;-72
2023/01/13 02:45:37;;;;;;;2.43;0.30;;;;;;;9.11;100.00;99129.88;5071367;28;20205;-73
2023/01/13 02:48:06;;;;;;;0.07;0.07;;;;;;;9.05;100.00;99137.47;5071081;28;20195;-72
2023/01/13 02:50:37;;;;;;;0.10;0.10;;;;;;;8.97;100.00;99127.47;5070166;28;20623;-72
2023/01/13 02:53:10;;;;;;;0.87;0.20;;;;;;;8.90;100.00;99119.00;5070964;28;20205;-73
2023/01/13 02:55:41;;;;;;;1.13;0.30;;;;;;;8.86;100.00;99115.38;5071178;28;20626;-73
2023/01/13 02:58:09;;;;;;;0.00;0.00;;;;;;;8.83;100.00;99114.13;5071091;28;20170;-72
2023/01/13 03:00:36;;;;;;;0.37;0.37;;;;;;;8.80;100.00;99105.78;5071054;28;20177;-75
2023/01/13 03:03:02;;;;;;;1.03;0.20;;;;;;;8.79;100.00;99123.25;5070713;28;20623;-75
2023/01/13 03:05:31;;;;;;;0.83;0.30;;;;;;;8.85;100.00;99130.91;5071432;28;20273;-74
2023/01/13 03:08:08;;;;;;;0.53;0.30;;;;;;;8.88;100.00;99145.78;5074388;28;20190;-75
2023/01/13 03:10:46;;;;;;;0.40;0.40;;;;;;;8.87;100.00;99145.00;5071086;28;20220;-74
2023/01/13 03:13:36;;;;;;;6.53;0.57;;;;;;;8.86;100.00;99153.50;5070800;28;20260;-75
2023/01/13 03:16:26;;;;;;;2.17;0.37;;;;;;;8.83;100.00;99157.69;5069503;28;20174;-74
2023/01/13 03:19:08;;;;;;;4.13;0.83;;;;;;;8.87;100.00;99139.53;5070881;28;20171;-74
2023/01/13 03:21:36;;;;;;;0.20;0.20;;;;;;;8.90;100.00;99127.19;5069731;28;20261;-75
2023/01/13 03:24:15;;;;;;;0.07;0.07;;;;;;;8.92;100.00;99144.78;5070470;28;20258;-74
2023/01/13 03:26:50;;;;;;;0.10;0.10;;;;;;;8.89;100.00;99150.91;5070786;28;20166;-75
2023/01/13 03:29:33;;;;;;;2.00;0.53;;;;;;;8.89;100.00;99150.91;5070952;28;20210;-75
2023/01/13 03:32:10;;;;;;;0.03;0.03;;;;;;;8.89;100.00;99152.84;5070140;28;20165;-74
2023/01/13 03:34:44;;;;;;;0.03;0.03;;;;;;;8.89;100.00;99145.47;5070901;28;20185;-75
2023/01/13 03:37:12;;;;;;;0.37;0.37;;;;;;;8.89;100.00;99150.91;5070682;28;20303;-74
2023/01/13 03:39:44;;;;;;;0.50;0.30;;;;;;;8.90;100.00;99149.78;5070683;28;20193;-75
2023/01/13 03:42:17;;;;;;;3.20;0.90;;;;;;;8.91;100.00;99148.63;5069218;28;20666;-75
2023/01/13 03:44:52;;;;;;;3.60;0.37;;;;;;;8.99;100.00;99157.09;5070776;28;20215;-75
2023/01/13 03:47:25;;;;;;;5.53;0.83;;;;;;;9.03;97.69;99130.78;5069054;28;20194;-75
2023/01/13 03:50:00;;;;;;;5.70;1.10;;;;;;;9.11;94.94;99138.06;5068903;28;20232;-74
2023/01/13 03:52:31;;;;;;;2.63;1.07;;;;;;;9.07;94.32;99145.31;5070704;28;20174;-74
2023/01/13 03:55:04;;;;;;;6.80;1.20;;;;;;;9.09;92.89;99143.06;5070478;28;20277;-74
2023/01/13 03:57:33;;;;;;;4.63;1.20;;;;;;;9.06;92.91;99141.00;5070552;28;20606;-74
2023/01/13 04:00:02;;;;;;;8.20;1.17;;;;;;;9.03;92.08;99141.66;5070395;28;20659;-74
2023/01/13 04:02:56;;;;;;;2.57;1.10;;;;;;;9.06;91.27;99139.06;5070333;28;20201;-74
2023/01/13 04:05:21;;;;;;;10.50;1.90;;;;;;;9.02;91.57;99132.69;5070334;28;20189;-74
2023/01/13 04:08:17;;;;;;;1.70;0.90;;;;;;;8.98;92.72;99147.34;5070305;28;20195;-75
2023/01/13 04:10:50;;;;;;;2.13;0.47;;;;;;;8.92;93.20;99128.44;5070279;28;20234;-74
2023/01/13 04:13:20;;;;;;;0.13;0.13;;;;;;;8.88;93.95;99134.91;5070029;28;20170;-75
2023/01/13 04:15:48;;;;;;;0.53;0.53;;;;;;;8.83;94.93;99127.72;5070234;28;20198;-72
2023/01/13 04:18:19;;;;;;;4.57;0.87;;;;;;;8.79;95.91;99140.41;5070250;28;20174;-72
2023/01/13 04:20:47;;;;;;;0.20;0.20;;;;;;;8.81;95.92;99129.97;5070600;28;20198;-72
2023/01/13 04:23:12;;;;;;;0.40;0.30;;;;;;;8.79;96.41;99134.94;5069956;28;20171;-72
2023/01/13 04:25:39;;;;;;;10.30;0.83;;;;;;;8.81;96.42;99131.88;5070014;28;20261;-72
2023/01/13 04:28:05;;;;;;;1.13;1.07;;;;;;;8.79;96.99;99129.50;5070252;28;20210;-72
2023/01/13 04:30:30;;;;;;;0.10;0.10;;;;;;;8.76;97.82;99130.16;5068784;28;20752;-72
2023/01/13 04:32:56;;;;;;;0.33;0.20;;;;;;;8.74;97.85;99137.88;5069828;28;20537;-72
2023/01/13 04:35:21;;;;;;;0.43;0.33;;;;;;;8.73;98.21;99128.13;5070062;28;20257;-73
2023/01/13 04:37:47;;;;;;;0.27;0.20;;;;;;;8.73;98.18;99139.00;5070068;28;20634;-72
2023/01/13 04:40:12;;;;;;;0.40;0.40;;;;;;;8.76;97.36;99148.44;5070322;28;20308;-73
2023/01/13 04:42:38;;;;;;;0.17;0.10;;;;;;;8.75;97.24;99142.19;5070582;28;20182;-73
2023/01/13 04:45:03;;;;;;;3.03;0.57;;;;;;;8.74;97.63;99143.31;5073538;28;20171;-72
2023/01/13 04:47:28;;;;;;;1.30;0.73;;;;;;;8.72;96.84;99161.91;5073767;28;20356;-72
2023/01/13 04:49:54;;;;;;;8.97;1.90;;;;;;;8.72;95.99;99156.47;5073452;28;20295;-72
2023/01/13 04:52:19;;;;;;;2.57;1.00;;;;;;;8.76;94.32;99157.41;5073575;28;20189;-72
2023/01/13 04:54:44;;;;;;;5.93;1.40;;;;;;;8.73;92.75;99157.28;5073451;28;20225;-72
2023/01/13 04:57:09;;;;;;;12.63;3.00;;;;;;;8.74;89.96;99156.13;5073255;28;20174;-73
2023/01/13 04:59:35;;;;;;;2.23;1.43;;;;;;;8.71;88.86;99154.09;5073348;28;20246;-72
2023/01/13 05:02:00;;;;;;;4.47;1.60;;;;;;;8.62;88.94;99140.53;5072095;28;20545;-72
2023/01/13 05:04:25;;;;;;;2.27;1.50;;;;;;;8.55;88.83;99142.97;5073000;28;20220;-73
2023/01/13 05:06:51;;;;;;;2.93;1.73;;;;;;;8.52;88.96;99146.34;5072890;28;20174;-72
2023/01/13 05:09:16;;;;;;;6.93;2.07;;;;;;;8.45;89.94;99148.78;5073126;28;20170;-72
2023/01/13 05:17:16;;;;;;;0.73;0.50;;;;;;;8.44;89.43;99167.06;5073164;28;20176;-72
2023/01/13 05:19:41;;;;;;;3.13;1.80;;;;;;;8.39;89.85;99164.53;5071645;28;20175;-72
2023/01/13 05:27:35;;;;;;;4.30;1.60;;;;;;;8.26;90.63;99170.97;5072619;28;20252;-73
2023/01/13 05:30:01;;;;;;;1.70;1.60;;;;;;;8.25;89.98;99164.72;5072629;28;20178;-73
2023/01/13 05:32:29;;;;;;;11.57;1.77;;;;;;;8.27;89.55;99176.06;5071299;28;20178;-72
2023/01/13 05:34:55;;;;;;;2.33;1.77;;;;;;;8.29;88.32;99165.66;5072564;28;20177;-73
2023/01/13 05:37:22;;;;;;;1.50;0.80;;;;;;;8.30;86.74;99161.81;5072540;28;20511;-72
2023/01/13 05:45:15;;;;;;;2.03;0.63;;;;;;;8.26;86.32;99139.09;5072525;28;20675;-72
2023/01/13 05:47:40;;;;;;;3.33;1.70;;;;;;;8.20;86.62;99140.41;5072312;28;20191;-72
2023/01/13 05:50:06;;;;;;;0.30;0.30;;;;;;;8.19;86.47;99130.63;5071070;28;20179;-72
2023/01/13 05:52:31;;;;;;;4.70;1.90;;;;;;;8.17;86.25;99140.25;5072133;28;20531;-73
2023/01/13 05:54:56;;;;;;;4.17;1.27;;;;;;;8.14;85.54;99144.44;5072078;28;20220;-72
2023/01/13 05:57:22;;;;;;;0.10;0.10;;;;;;;8.09;85.02;99150.03;5072488;28;20236;-72
2023/01/13 05:59:47;;;;;;;0.00;0.00;;;;;;;8.03;86.08;99146.72;5072072;28;20658;-72
2023/01/13 06:02:12;;;;;;;1.27;0.20;;;;;;;7.96;86.62;99153.81;5072045;28;20175;-73
2023/01/13 06:04:37;;;;;;;3.80;1.37;;;;;;;7.94;86.76;99151.38;5071710;28;20536;-73
2023/01/13 06:07:03;;;;;;;1.27;0.90;;;;;;;8.01;87.01;99154.41;5072111;28;20200;-73
2023/01/13 06:09:28;;;;;;;7.47;1.27;;;;;;;8.04;86.74;99161.91;5071913;28;20610;-72
2023/01/13 06:11:53;;;;;;;2.73;1.17;;;;;;;8.05;87.12;99165.44;5071780;28;20182;-72
2023/01/13 06:14:19;;;;;;;4.53;1.33;;;;;;;8.09;86.92;99169.09;5071644;28;20183;-72
2023/01/13 06:16:44;;;;;;;0.20;0.20;;;;;;;8.14;86.04;99168.91;5071700;28;20178;-72
2023/01/13 06:19:12;;;;;;;4.77;0.50;;;;;;;8.16;86.51;99177.56;5071713;28;20182;-72
2023/01/13 06:21:40;;;;;;;3.20;0.77;;;;;;;8.15;85.67;99181.41;5071736;28;20254;-72
2023/01/13 06:24:07;;;;;;;0.40;0.37;;;;;;;8.22;85.11;99168.06;5071332;28;20183;-72
2023/01/13 06:26:36;;;;;;;1.63;0.77;;;;;;;8.22;84.44;99172.72;5071317;28;20186;-72
2023/01/13 06:29:02;;;;;;;3.60;1.37;;;;;;;8.24;84.18;99165.03;5071525;28;20190;-72
2023/01/13 06:31:27;;;;;;;2.40;0.50;;;;;;;8.22;83.48;99170.00;5071471;28;20182;-72
2023/01/13 06:33:59;;;;;;;2.77;0.40;;;;;;;8.21;83.40;99158.31;5070021;28;20181;-72
2023/01/13 06:36:32;;;;;;;0.83;0.33;;;;;;;8.20;83.49;99159.44;5071966;28;20205;-73
2023/01/13 06:39:00;;;;;;;16.47;0.87;;;;;;;8.16;83.67;99168.59;5071410;28;20166;-72
2023/01/13 06:44:12;;;;;;;2.37;1.27;;;;;;;8.21;82.63;99158.31;5071376;28;20166;-73
2023/01/13 06:46:37;;;;;;;10.03;0.83;;;;;;;8.19;82.91;99160.56;5070950;28;20541;-72
2023/01/13 06:49:02;;;;;;;0.97;0.47;;;;;;;8.13;82.90;99164.59;5070808;28;20256;-72
2023/01/13 06:51:27;;;;;;;6.90;0.93;;;;;;;8.10;82.68;99157.09;5069966;28;20181;-73
2023/01/13 06:53:53;;;;;;;11.53;0.93;;;;;;;8.07;83.28;99155.00;5069495;28;20185;-71
2023/01/13 06:56:18;;;;;;;2.00;1.90;;;;;;;8.04;83.25;99150.22;5069834;28;20269;-73
2023/01/13 06:58:43;;;;;;;1.07;0.40;;;;;;;8.05;82.91;99154.53;5071163;28;20181;-72
2023/01/13 07:01:08;;;;;;;0.00;0.00;;;;;;;8.05;82.44;99160.78;5071073;28;20262;-72
2023/01/13 07:03:34;;;;;;;2.73;0.50;;;;;;;8.05;82.92;99165.44;5070874;28;20182;-74
2023/01/13 07:06:00;;;;;;;0.00;0.00;;;;;;;8.04;82.68;99170.06;5070550;28;20194;-75
2023/01/13 07:08:26;;;;;;;0.50;0.40;;;;;;;8.04;83.21;99180.16;5071054;28;20304;-74
2023/01/13 07:10:51;;;;;;;1.13;1.13;;;;;;;8.05;82.58;99179.03;5074400;28;20245;-73
2023/01/13 07:16:05;;;;;;;0.50;0.50;;;;;;;8.05;82.48;99185.25;5071132;28;20189;-73
2023/01/13 07:18:32;;;;;;;0.00;0.00;;;;;;;8.02;82.10;99185.13;5070937;28;20178;-73
2023/01/13 07:21:18;;;;;;;9.57;1.47;;;;;;;8.01;82.26;99192.47;5071013;28;20167;-73
2023/01/13 07:23:45;;;;;;;4.70;0.60;;;;;;;8.04;81.80;99180.94;5070686;28;20174;-73
2023/01/13 07:26:10;;;;;;;0.50;0.20;;;;;;;8.02;82.09;99185.91;5070849;28;20251;-73
2023/01/13 07:28:37;;;;;;;2.53;1.03;;;;;;;7.98;82.16;99182.25;5070703;28;20673;-73
2023/01/13 07:31:02;;;;;;;9.23;0.57;;;;;;;7.98;82.02;99193.13;5070993;28;20190;-73
2023/01/13 07:33:31;;;;;;;1.17;0.83;;;;;;;7.96;81.95;99202.75;5070557;28;20618;-73
2023/01/13 07:35:59;;;;;;;0.20;0.20;;;;;;;7.96;82.12;99208.19;5070957;28;20270;-73
2023/01/13 07:38:25;;;;;;;14.53;1.83;;;;;;;7.95;81.91;99209.28;5069405;28;20595;-72
2023/01/13 07:40:50;;;;;;;0.00;0.00;;;;;;;7.95;82.02;99220.97;5070768;28;20262;-73
2023/01/13 07:43:30;;;;;;;4.77;0.70;;;;;;;7.96;81.29;99210.91;5069154;28;20174;-72
2023/01/13 07:46:03;;;;;;;4.90;0.43;;;;;;;7.95;81.85;99215.53;5069385;28;20607;-73
2023/01/13 07:48:30;;;;;;;1.33;0.47;;;;;;;7.96;81.80;99206.28;5070153;28;20212;-75
2023/01/13 07:50:55;;;;;;;2.13;1.13;;;;;;;7.99;80.87;99204.81;5070815;28;20187;-75
2023/01/13 07:53:23;;;;;;;1.23;0.40;;;;;;;7.98;81.17;99203.22;5070287;28;20178;-75
2023/01/13 07:55:49;;;;;;;4.60;1.10;;;;;;;7.98;81.32;99200.50;5070335;28;20572;-75
2023/01/13 07:58:14;;;;;;;1.27;0.80;;;;;;;7.98;80.89;99206.75;5070602;28;20175;-76
2023/01/13 08:00:39;;;;;;;2.17;0.70;;;;;;;8.00;81.48;99200.97;5070498;28;20182;-75
2023/01/13 08:03:05;;;;;;;1.17;0.87;;;;;;;7.97;81.49;99210.59;5070243;28;20253;-76
2023/01/13 08:05:30;;;;;;;11.67;1.37;;;;;;;7.96;81.11;99194.59;5070572;28;20191;-75
2023/01/13 08:07:56;;;;;;;0.37;0.37;;;;;;;7.93;82.46;99203.38;5070227;28;20580;-76
2023/01/13 08:10:21;;;;;;;0.00;0.00;;;;;;;7.90;82.28;99201.31;5070372;28;20182;-76
2023/01/13 08:15:31;;;;;;;0.60;0.47;;;;;;;7.89;83.12;99210.59;5070535;28;20178;-75
2023/01/13 08:17:58;;;;;;;1.60;1.10;;;;;;;7.88;83.30;99220.66;5073249;28;20174;-74
2023/01/13 08:20:23;;;;;;;0.73;0.50;;;;;;;7.90;83.13;99209.47;5073958;28;20217;-76
2023/01/13 08:22:48;;;;;;;7.30;1.70;;;;;;;7.89;83.83;99211.38;5073851;28;20199;-76
2023/01/13 08:25:14;;;;;;;0.37;0.37;;;;;;;7.89;84.00;99216.81;5073971;28;20171;-76
2023/01/13 08:27:39;;;;;;;1.93;0.13;;;;;;;7.89;83.65;99211.38;5074055;28;20229;-75
2023/01/13 08:30:05;;;;;;;4.43;1.90;;;;;;;7.89;83.62;99227.69;5073874;28;20185;-72
2023/01/13 08:32:30;;;;;;;7.90;2.10;;;;;;;7.96;83.66;99216.34;5073543;28;20174;-73
2023/01/13 08:34:56;;;;;;;1.10;0.60;;;;;;;7.96;82.88;99214.44;5073747;28;20178;-73
2023/01/13 08:37:21;;;;;;;1.47;0.73;;;;;;;7.96;83.96;99227.22;5073794;28;20178;-72
2023/01/13 08:39:47;;;;;;;4.23;1.30;;;;;;;7.93;84.36;99244.97;5073756;28;20265;-72
2023/01/13 08:42:12;;;;;;;2.00;0.90;;;;;;;7.95;83.73;99242.72;5073480;28;20637;-72
2023/01/13 08:44:38;;;;;;;3.53;0.87;;;;;;;7.97;83.37;99245.13;5073407;28;20179;-72
2023/01/13 08:47:03;;;;;;;10.33;2.43;;;;;;;7.97;83.11;99242.41;5073587;28;20270;-72
2023/01/13 08:49:28;;;;;;;0.20;0.17;;;;;;;7.94;83.56;99248.47;5073211;28;20178;-72
2023/01/13 08:51:54;;;;;;;5.17;1.63;;;;;;;7.95;82.54;99240.00;5073457;28;20630;-72
2023/01/13 08:54:19;;;;;;;7.60;1.53;;;;;;;7.93;81.39;99234.09;5073270;28;20693;-72
2023/01/13 08:56:45;;;;;;;1.60;1.03;;;;;;;7.93;81.29;99234.09;5071745;28;20253;-72
2023/01/13 08:59:15;;;;;;;8.23;1.73;;;;;;;7.90;81.52;99242.09;5073668;28;20213;-73
2023/01/13 09:01:41;;;;;;;1.50;0.60;;;;;;;7.91;80.93;99236.34;5073296;28;20194;-75
2023/01/13 09:04:14;;;;;;;1.97;0.77;;;;;;;7.95;79.73;99240.00;5073059;28;20220;-74
2023/01/13 09:06:40;;;;;;;7.27;1.07;;;;;;;7.92;79.14;99220.81;5073054;28;20217;-75
2023/01/13 09:09:05;;;;;;;12.90;1.27;;;;;;;7.91;79.54;99220.03;5073062;28;20238;-75
2023/01/13 09:14:23;;;;;;;3.40;0.70;;;;;;;8.03;76.50;99224.78;5073208;28;20626;-72
2023/01/13 09:16:48;;;;;;;7.20;1.13;;;;;;;8.04;77.02;99218.22;5073119;28;20228;-72
2023/01/13 09:19:14;;;;;;;30.93;2.07;;;;;;;8.01;77.77;99216.16;5072917;28;20589;-74
2023/01/13 09:21:39;;;;;;;6.57;1.37;;;;;;;7.97;78.17;99226.09;5073100;28;20174;-74
2023/01/13 09:24:05;;;;;;;2.20;0.63;;;;;;;7.94;78.08;99224.00;5072673;28;20174;-74
2023/01/13 09:26:30;;;;;;;0.80;0.63;;;;;;;7.96;77.85;99206.28;5072806;28;20268;-74
2023/01/13 09:28:55;;;;;;;2.57;1.60;;;;;;;7.96;77.77;99233.47;5071915;28;20660;-72
2023/01/13 09:31:21;;;;;;;7.97;1.57;;;;;;;7.93;77.76;99219.69;5072865;28;20634;-73
2023/01/13 09:36:34;;;;;;;2.23;0.80;;;;;;;8.03;78.04;99239.19;5043599;28;20209;-74
2023/01/13 09:38:59;;;;;;;3.50;1.37;;;;;;;8.04;77.51;99234.56;5072636;28;20269;-74
2023/01/13 09:44:40;;;;;;;3.03;1.33;;;;;;;7.92;77.34;99226.25;5072275;28;20273;-73
2023/01/13 09:47:16;;;;;;;8.00;1.20;;;;;;;7.91;77.14;99233.63;5067972;28;20194;-73
2023/01/13 09:49:41;;;;;;;0.70;0.57;;;;;;;7.93;77.62;99228.66;5072044;28;20231;-75
2023/01/13 09:52:21;;;;;;;0.80;0.73;;;;;;;7.96;77.58;99228.03;5070947;28;20179;-75
2023/01/13 09:55:22;;;;;;;7.17;0.63;;;;;;;8.00;76.92;99223.53;5072097;28;20182;-75
2023/01/13 09:57:47;;;;;;;3.13;1.10;;;;;;;8.01;76.49;99232.47;5072207;28;20307;-76
2023/01/13 10:00:21;;;;;;;0.30;0.30;;;;;;;7.99;76.37;99215.69;5072479;28;20253;-76
2023/01/13 10:03:08;;;;;;;1.10;1.00;;;;;;;7.97;77.01;99229.63;5070694;28;20664;-75
2023/01/13 10:05:37;;;;;;;4.13;1.37;;;;;;;7.96;76.22;99225.31;5070773;28;20224;-76
2023/01/13 10:08:34;;;;;;;2.73;1.23;;;;;;;7.98;77.12;99223.06;5072192;28;20194;-72
2023/01/13 10:13:51;;;;;;;4.90;1.80;;;;;;;7.98;77.33;99224.97;5082033;28;20265;-73
2023/01/13 10:16:33;;;;;;;0.77;0.50;;;;;;;8.02;76.65;99215.84;5073522;28;20159;-72
2023/01/13 10:19:10;;;;;;;7.43;2.07;;;;;;;8.04;77.47;99231.81;5071988;28;20265;-73
2023/01/13 10:21:54;;;;;;;9.60;1.50;;;;;;;8.01;77.35;99211.53;5070477;28;20261;-72
2023/01/13 10:25:06;;;;;;;2.97;0.97;;;;;;;8.02;76.79;99221.28;5071737;28;20175;-73
2023/01/13 10:27:35;;;;;;;1.90;0.60;;;;;;;8.02;76.90;99224.00;5070803;28;20214;-72
2023/01/13 10:30:14;;;;;;;1.50;0.67;;;;;;;8.04;77.08;99234.56;5071682;28;20261;-72
2023/01/13 10:32:45;;;;;;;3.93;0.87;;;;;;;8.07;76.73;99228.44;5071371;28;20210;-72
2023/01/13 10:35:10;;;;;;;3.97;1.03;;;;;;;8.14;75.46;99223.31;5071637;28;20178;-73
2023/01/13 10:37:35;;;;;;;2.93;1.20;;;;;;;8.16;74.91;99223.78;5070236;28;20791;-73
2023/01/13 10:40:02;;;;;;;6.47;1.10;;;;;;;8.15;75.41;99222.19;5071266;28;20179;-72
2023/01/13 10:42:27;;;;;;;5.07;2.10;;;;;;;8.12;75.59;99246.53;5070864;28;20182;-73
2023/01/13 10:44:55;;;;;;;5.40;0.93;;;;;;;8.10;75.77;99232.44;5070858;28;20576;-72
2023/01/13 10:47:31;;;;;;;8.67;2.00;;;;;;;8.07;75.87;99239.34;5071086;28;20201;-72
2023/01/13 10:50:07;;;;;;;3.77;1.50;;;;;;;8.09;76.05;99258.06;5070597;28;20531;-73
2023/01/13 10:52:36;;;;;;;3.67;0.87;;;;;;;8.14;74.74;99233.41;5070737;28;20540;-73
2023/01/13 10:55:30;;;;;;;2.53;0.87;;;;;;;8.12;74.61;99235.66;5070876;28;20798;-72
2023/01/13 10:57:56;;;;;;;2.23;0.93;;;;;;;8.13;73.93;99245.41;5070872;28;20177;-65
2023/01/13 11:00:32;;;;;;;0.73;0.67;;;;;;;8.10;74.25;99238.72;5071272;28;20170;-72
2023/01/13 11:03:13;;;;;;;1.17;0.90;;;;;;;8.10;73.91;99241.44;5070447;28;20257;-72
2023/01/13 11:05:39;;;;;;;1.93;0.70;;;;;;;8.10;74.05;99246.03;5070493;28;20214;-72
2023/01/13 11:08:16;;;;;;;3.00;1.57;;;;;;;8.09;74.15;99258.84;5069299;28;20271;-72
2023/01/13 11:10:49;;;;;;;6.17;1.20;;;;;;;8.10;73.02;99240.59;5070794;28;20203;-72
2023/01/13 11:14:31;;;;;;;2.07;1.00;;;;;;;8.10;73.98;99248.75;5070349;28;20178;-73
2023/01/13 11:16:27;;;;;;;6.57;0.90;;;;;;;8.11;73.07;99248.47;5070330;28;20185;-72
2023/01/13 11:19:10;;;;;;;1.23;0.40;;;;;;;8.11;72.71;99251.19;5070605;28;20170;-72
2023/01/13 11:22:14;;;;;;;6.83;0.80;;;;;;;8.11;73.31;99258.56;5070373;28;20185;-72
2023/01/13 11:24:58;;;;;;;5.97;1.23;;;;;;;8.10;73.52;99265.91;5068243;28;20243;-73
2023/01/13 11:27:41;;;;;;;6.67;1.77;;;;;;;8.09;74.20;99268.94;5067028;28;20206;-72
2023/01/13 11:30:38;;;;;;;9.40;1.43;;;;;;;8.07;73.71;99266.53;5068555;28;20186;-73
2023/01/13 11:33:14;;;;;;;7.90;1.03;;;;;;;8.08;74.24;99273.56;5067446;28;20235;-73
2023/01/13 11:35:46;;;;;;;1.53;0.70;;;;;;;8.08;74.71;99281.72;5070252;28;20177;-72
2023/01/13 11:38:33;;;;;;;3.20;1.10;;;;;;;8.08;74.91;99289.88;5069864;28;20269;-72
2023/01/13 11:41:07;;;;;;;2.47;1.07;;;;;;;8.07;75.21;99294.53;5068030;28;20813;-73
2023/01/13 11:43:50;;;;;;;10.40;1.17;;;;;;;8.06;75.49;99289.41;5069787;28;20170;-73
2023/01/13 11:46:15;;;;;;;0.50;0.50;;;;;;;8.03;75.58;99284.63;5069370;28;20270;-73
2023/01/13 11:48:42;;;;;;;1.87;0.90;;;;;;;8.04;75.29;99283.50;5068359;28;20289;-73
2023/01/13 11:51:25;;;;;;;10.17;1.37;;;;;;;8.05;75.08;99282.38;5070285;28;20178;-73
2023/01/13 11:53:53;;;;;;;2.60;1.07;;;;;;;8.07;75.04;99282.84;5074040;28;20185;-72
2023/01/13 11:56:40;;;;;;;2.03;0.60;;;;;;;8.06;75.10;99282.06;5072682;28;20174;-72
2023/01/13 11:59:27;;;;;;;11.60;1.77;;;;;;;8.08;75.17;99281.72;5074057;28;20545;-72
2023/01/13 12:02:04;;;;;;;1.07;0.93;;;;;;;8.08;74.69;99276.28;5074083;28;20175;-72
2023/01/13 12:04:48;;;;;;;1.07;0.90;;;;;;;8.13;75.15;99281.59;5073895;28;20630;-72
2023/01/13 12:07:19;;;;;;;5.30;1.43;;;;;;;8.15;75.27;99279.34;5073967;28;20170;-72
2023/01/13 12:10:32;;;;;;;3.97;1.43;;;;;;;8.15;74.75;99271.16;5073933;28;20171;-72
2023/01/13 12:13:19;;;;;;;1.40;0.93;;;;;;;8.16;75.29;99267.31;5055765;28;20401;-73
2023/01/13 12:16:10;;;;;;;3.23;1.27;;;;;;;8.20;75.05;99272.91;5072665;28;20668;-73
2023/01/13 12:18:47;;;;;;;11.40;0.90;;;;;;;8.23;74.93;99291.31;5073775;28;20271;-72
2023/01/13 12:21:23;;;;;;;10.73;1.07;;;;;;;8.27;74.14;99270.50;5072259;28;20642;-73
2023/01/13 12:24:04;;;;;;;1.73;1.17;;;;;;;8.30;73.81;99267.13;5073383;28;20170;-73
2023/01/13 12:26:34;;;;;;;6.53;1.20;;;;;;;8.28;74.36;99270.19;5073666;28;20185;-73
2023/01/13 12:29:14;;;;;;;8.23;1.40;;;;;;;8.29;73.92;99260.88;5072099;28;20217;-72
2023/01/13 12:31:41;;;;;;;2.63;1.00;;;;;;;8.30;74.29;99273.38;5073433;28;20181;-72
2023/01/13 12:34:26;;;;;;;5.93;1.30;;;;;;;8.30;74.31;99259.75;5073076;28;20174;-72
2023/01/13 12:37:16;;;;;;;1.50;0.63;;;;;;;8.32;74.10;99251.28;5073451;28;20175;-72
2023/01/13 12:40:00;;;;;;;0.00;0.00;;;;;;;8.31;74.55;99266.00;5073439;28;20206;-72
2023/01/13 12:45:20;;;;;;;7.47;1.80;;;;;;;8.32;74.36;99248.53;5073207;28;20649;-72
2023/01/13 12:47:46;;;;;;;7.50;2.43;;;;;;;8.28;74.15;99267.47;5073048;28;20256;-72